createdAt,value
2023-05-19T00:02:00.246Z,103027.50
2023-05-19T00:04:27.816Z,103028.53
2023-05-19T00:06:54.417Z,103028.03
2023-05-19T00:09:21.127Z,103004.56
2023-05-19T00:11:47.830Z,103022.03
2023-05-19T00:14:14.503Z,103022.56
2023-05-19T00:16:42.247Z,102983.09
2023-05-19T00:19:10.050Z,103000.84
2023-05-19T00:21:40.548Z,103020.97
2023-05-19T00:24:07.567Z,102981.47
2023-05-19T00:26:34.102Z,103002.28
2023-05-19T00:29:00.879Z,103006.75
2023-05-19T00:31:27.440Z,103014.78
2023-05-19T00:33:53.884Z,103017.16
2023-05-19T00:36:20.417Z,103010.19
2023-05-19T00:38:46.864Z,103000.84
2023-05-19T00:41:13.386Z,102987.03
2023-05-19T00:43:39.931Z,102996.47
2023-05-19T00:46:07.424Z,102992.28
2023-05-19T00:48:33.988Z,102976.56
2023-05-19T00:51:04.844Z,102997.03
2023-05-19T00:53:35.075Z,103000.78
2023-05-19T00:56:02.949Z,102974.97
2023-05-19T00:58:31.047Z,102994.81
2023-05-19T01:01:04.235Z,103001.66
2023-05-19T01:03:32.427Z,102993.53
2023-05-19T01:06:01.701Z,102989.00
2023-05-19T01:08:31.598Z,102999.50
2023-05-19T01:10:58.232Z,102992.31
2023-05-19T01:13:25.134Z,102991.44
2023-05-19T01:15:57.904Z,102961.72
2023-05-19T01:18:32.585Z,102966.94
2023-05-19T01:21:17.011Z,102983.00
2023-05-19T01:24:07.108Z,102974.75
2023-05-19T01:27:03.892Z,102982.03
2023-05-19T01:29:42.655Z,102977.44
2023-05-19T01:32:11.920Z,102984.53
2023-05-19T01:34:43.196Z,102980.97
2023-05-19T01:37:10.113Z,102985.69
2023-05-19T01:39:37.344Z,102985.41
2023-05-19T01:42:04.614Z,102968.97
2023-05-19T01:44:32.903Z,102982.28
2023-05-19T01:46:59.985Z,102982.91
2023-05-19T01:49:26.440Z,102984.72
2023-05-19T01:51:53.295Z,102973.91
2023-05-19T01:54:19.767Z,102975.63
2023-05-19T01:57:04.077Z,102979.88
2023-05-19T01:59:42.014Z,102975.06
2023-05-19T02:02:26.387Z,102977.09
2023-05-19T02:04:59.821Z,102976.47
2023-05-19T02:07:59.772Z,102968.50
2023-05-19T02:10:33.357Z,102968.88
2023-05-19T02:13:04.633Z,102969.06
2023-05-19T02:15:42.186Z,102965.97
2023-05-19T02:18:11.703Z,102956.34
2023-05-19T02:20:39.660Z,102961.81
2023-05-19T02:23:06.450Z,102955.91
2023-05-19T02:25:33.031Z,102936.84
2023-05-19T02:27:59.907Z,102957.63
2023-05-19T02:30:26.346Z,102947.81
2023-05-19T02:32:54.295Z,102950.31
2023-05-19T02:35:21.434Z,102950.31
2023-05-19T02:37:47.971Z,102950.25
2023-05-19T02:40:14.410Z,102950.59
2023-05-19T02:42:40.871Z,102953.91
2023-05-19T02:45:07.796Z,102949.91
2023-05-19T02:47:36.738Z,102955.84
2023-05-19T02:50:04.329Z,102954.13
2023-05-19T02:52:30.821Z,102957.00
2023-05-19T02:54:57.255Z,102961.06
2023-05-19T02:57:24.155Z,102959.59
2023-05-19T02:59:51.068Z,102941.28
2023-05-19T03:02:17.898Z,102939.25
2023-05-19T03:04:45.587Z,102945.78
2023-05-19T03:07:14.163Z,102947.81
2023-05-19T03:09:40.825Z,102947.38
2023-05-19T03:12:07.751Z,102945.03
2023-05-19T03:14:34.855Z,102949.09
2023-05-19T03:17:01.756Z,102942.91
2023-05-19T03:19:28.281Z,102941.03
2023-05-19T03:21:56.383Z,102941.69
2023-05-19T03:24:22.880Z,102923.16
2023-05-19T03:26:49.307Z,102941.28
2023-05-19T03:29:16.431Z,102942.22
2023-05-19T03:31:43.074Z,102946.97
2023-05-19T03:34:09.555Z,102939.25
2023-05-19T03:36:39.801Z,102946.09
2023-05-19T03:39:06.887Z,102948.44
2023-05-19T03:41:33.527Z,102948.66
2023-05-19T03:43:59.973Z,102948.88
2023-05-19T03:46:26.526Z,102949.31
2023-05-19T03:48:53.117Z,102943.31
2023-05-19T03:51:19.599Z,102944.34
2023-05-19T03:53:46.058Z,102946.06
2023-05-19T03:56:13.850Z,102948.25
2023-05-19T03:58:44.870Z,102927.94
2023-05-19T04:01:11.515Z,102923.16
2023-05-19T04:03:37.982Z,102948.03
2023-05-19T04:06:04.633Z,102947.81
2023-05-19T04:08:31.257Z,102946.00
2023-05-19T04:10:57.693Z,102944.81
2023-05-19T04:13:24.142Z,102947.56
2023-05-19T04:15:50.673Z,102953.59
2023-05-19T04:18:17.144Z,102945.13
2023-05-19T04:20:43.575Z,102956.56
2023-05-19T04:23:10.489Z,102961.28
2023-05-19T04:25:37.332Z,102955.69
2023-05-19T04:28:03.774Z,102958.81
2023-05-19T04:30:31.090Z,102958.28
2023-05-19T04:32:58.225Z,102957.41
2023-05-19T04:35:24.982Z,102956.88
2023-05-19T04:37:54.205Z,102957.72
2023-05-19T04:40:23.582Z,102968.66
2023-05-19T04:42:52.235Z,102952.69
2023-05-19T04:45:18.779Z,102958.84
2023-05-19T04:47:46.927Z,102977.84
2023-05-19T04:50:14.236Z,102968.91
2023-05-19T04:52:42.426Z,102957.56
2023-05-19T04:55:11.218Z,102967.63
2023-05-19T04:57:38.789Z,102971.88
2023-05-19T05:00:09.872Z,102965.00
2023-05-19T05:02:37.065Z,102964.69
2023-05-19T05:05:04.301Z,102969.81
2023-05-19T05:07:32.320Z,102948.19
2023-05-19T05:09:59.087Z,102958.41
2023-05-19T05:12:25.803Z,102956.44
2023-05-19T05:14:52.467Z,102942.41
2023-05-19T05:17:19.178Z,102962.16
2023-05-19T05:19:45.908Z,102959.00
2023-05-19T05:22:12.793Z,102957.81
2023-05-19T05:24:39.496Z,102964.09
2023-05-19T05:27:08.086Z,102963.53
2023-05-19T05:29:34.557Z,102959.00
2023-05-19T05:32:01.038Z,102957.19
2023-05-19T05:34:27.646Z,102955.66
2023-05-19T05:36:55.013Z,102960.47
2023-05-19T05:39:21.457Z,102934.50
2023-05-19T05:41:47.983Z,102934.38
2023-05-19T05:44:14.452Z,102944.31
2023-05-19T05:46:41.212Z,102951.94
2023-05-19T05:49:08.378Z,102931.44
2023-05-19T05:51:35.844Z,102946.13
2023-05-19T05:54:03.052Z,102950.72
2023-05-19T05:56:29.789Z,102948.41
2023-05-19T05:58:56.796Z,102952.69
2023-05-19T06:01:24.002Z,102938.88
2023-05-19T06:03:50.954Z,102935.81
2023-05-19T06:06:17.567Z,102934.78
2023-05-19T06:08:44.047Z,102932.88
2023-05-19T06:11:10.640Z,102937.66
2023-05-19T06:13:38.127Z,102934.59
2023-05-19T06:16:05.962Z,102934.16
2023-05-19T06:18:32.475Z,102936.00
2023-05-19T06:20:59.044Z,102925.97
2023-05-19T06:23:26.807Z,102953.03
2023-05-19T06:25:53.301Z,102949.09
2023-05-19T06:28:19.800Z,102943.97
2023-05-19T06:30:46.334Z,102944.84
2023-05-19T06:33:12.725Z,102944.16
2023-05-19T06:35:39.226Z,102947.91
2023-05-19T06:38:05.686Z,102948.06
2023-05-19T06:40:32.339Z,102954.47
2023-05-19T06:42:59.016Z,102947.75
2023-05-19T06:45:25.510Z,102947.00
2023-05-19T06:47:52.095Z,102935.50
2023-05-19T06:50:18.594Z,102942.75
2023-05-19T06:52:46.944Z,102939.13
2023-05-19T06:55:13.363Z,102946.09
2023-05-19T06:57:39.910Z,102938.69
2023-05-19T07:00:10.014Z,102947.34
2023-05-19T07:02:36.542Z,102949.69
2023-05-19T07:05:03.209Z,102958.22
2023-05-19T07:07:29.670Z,102949.38
2023-05-19T07:09:56.453Z,102954.41
2023-05-19T07:12:22.936Z,102938.59
2023-05-19T07:14:49.357Z,102946.44
2023-05-19T07:17:15.901Z,102925.31
2023-05-19T07:19:42.334Z,102925.09
2023-05-19T07:22:08.810Z,102934.47
2023-05-19T07:24:35.439Z,102932.78
2023-05-19T07:27:02.064Z,102933.47
2023-05-19T07:29:28.513Z,102919.88
2023-05-19T07:31:57.872Z,102929.41
2023-05-19T07:34:25.042Z,102939.00
2023-05-19T07:36:52.089Z,102940.00
2023-05-19T07:39:19.031Z,102924.34
2023-05-19T07:41:52.464Z,102909.72
2023-05-19T07:44:19.112Z,102911.78
2023-05-19T07:46:45.565Z,102901.38
2023-05-19T07:49:11.986Z,102920.22
2023-05-19T07:51:38.414Z,102902.41
2023-05-19T07:54:04.872Z,102911.34
2023-05-19T07:56:31.378Z,102906.19
2023-05-19T07:58:57.793Z,102899.19
2023-05-19T08:01:24.226Z,102905.59
2023-05-19T08:03:50.942Z,102911.06
2023-05-19T08:06:17.487Z,102899.75
2023-05-19T08:08:44.193Z,102903.88
2023-05-19T08:11:10.652Z,102897.94
2023-05-19T08:13:37.105Z,102886.69
2023-05-19T08:16:03.889Z,102902.69
2023-05-19T08:18:30.506Z,102897.69
2023-05-19T08:20:57.087Z,102892.47
2023-05-19T08:23:23.603Z,102894.56
2023-05-19T08:25:50.037Z,102880.47
2023-05-19T08:28:16.596Z,102875.13
2023-05-19T08:30:43.029Z,102886.00
2023-05-19T08:33:09.586Z,102877.44
2023-05-19T08:35:36.135Z,102870.19
2023-05-19T08:38:02.603Z,102872.72
2023-05-19T08:40:31.636Z,102881.81
2023-05-19T08:42:58.364Z,102873.59
2023-05-19T08:45:24.965Z,102871.13
2023-05-19T08:47:52.100Z,102874.16
2023-05-19T08:50:27.539Z,102867.94
2023-05-19T08:53:02.416Z,102848.22
2023-05-19T08:55:36.678Z,102856.72
2023-05-19T08:58:04.749Z,102856.28
2023-05-19T09:00:32.671Z,102837.03
2023-05-19T09:03:16.991Z,102852.22
2023-05-19T09:05:46.514Z,102831.59
2023-05-19T09:08:13.351Z,102837.34
2023-05-19T09:10:39.799Z,102834.25
2023-05-19T09:13:06.491Z,102823.22
2023-05-19T09:15:34.726Z,102829.81
2023-05-19T09:18:15.157Z,102839.72
2023-05-19T09:20:44.709Z,102833.97
2023-05-19T09:23:16.279Z,102834.78
2023-05-19T09:25:53.214Z,102820.69
2023-05-19T09:28:40.335Z,102827.78
2023-05-19T09:31:09.065Z,102837.00
2023-05-19T09:33:37.492Z,102830.72
2023-05-19T09:36:08.410Z,102825.75
2023-05-19T09:38:36.184Z,102812.22
2023-05-19T09:41:03.454Z,102821.34
2023-05-19T09:43:34.472Z,102822.66
2023-05-19T09:46:07.859Z,102798.72
2023-05-19T09:48:36.445Z,102816.81
2023-05-19T09:51:05.201Z,102795.59
2023-05-19T09:53:32.486Z,102806.69
2023-05-19T09:56:01.611Z,102813.91
2023-05-19T09:58:34.620Z,102807.06
2023-05-19T10:01:01.614Z,102804.25
2023-05-19T10:03:28.340Z,102800.06
2023-05-19T10:05:54.976Z,102794.00
2023-05-19T10:08:26.388Z,102763.50
2023-05-19T10:10:52.963Z,102795.25
2023-05-19T10:13:19.683Z,102773.31
2023-05-19T10:15:58.140Z,102764.63
2023-05-19T10:18:26.890Z,102784.06
2023-05-19T10:20:54.225Z,102793.06
2023-05-19T10:23:21.052Z,102789.50
2023-05-19T10:25:49.209Z,102780.19
2023-05-19T10:28:18.494Z,102769.19
2023-05-19T10:30:47.863Z,102738.94
2023-05-19T10:33:18.165Z,102765.44
2023-05-19T10:35:50.593Z,102772.69
2023-05-19T10:38:48.289Z,102765.94
2023-05-19T10:44:11.844Z,102764.22
2023-05-19T10:46:40.710Z,102772.59
2023-05-19T10:49:10.146Z,102761.47
2023-05-19T10:51:37.182Z,102764.44
2023-05-19T10:54:10.474Z,102759.97
2023-05-19T10:56:42.327Z,102761.28
2023-05-19T10:59:33.131Z,102760.88
2023-05-19T11:02:07.521Z,102758.94
2023-05-19T11:04:41.061Z,102752.41
2023-05-19T11:07:10.407Z,102754.66
2023-05-19T11:09:43.112Z,102730.84
2023-05-19T11:12:10.942Z,102769.72
2023-05-19T11:14:37.514Z,102767.88
2023-05-19T11:17:05.551Z,102760.03
2023-05-19T11:19:34.687Z,102748.16
2023-05-19T11:22:14.187Z,102750.38
2023-05-19T11:24:45.775Z,102740.75
2023-05-19T11:27:37.374Z,102736.13
2023-05-19T11:30:15.175Z,102736.66
2023-05-19T11:32:42.900Z,102732.91
2023-05-19T11:35:11.002Z,102730.44
2023-05-19T11:37:37.708Z,102722.28
2023-05-19T11:40:07.102Z,102743.56
2023-05-19T11:42:36.992Z,102732.59
2023-05-19T11:45:04.884Z,102714.25
2023-05-19T11:47:42.060Z,102723.69
2023-05-19T11:50:12.709Z,102736.16
2023-05-19T11:52:44.480Z,102706.22
2023-05-19T11:55:15.837Z,102715.50
2023-05-19T11:58:02.862Z,102730.47
2023-05-19T12:00:37.098Z,102724.59
2023-05-19T12:03:03.970Z,102704.44
2023-05-19T12:05:34.485Z,102722.03
2023-05-19T12:08:02.877Z,102722.88
2023-05-19T12:10:31.352Z,102720.59
2023-05-19T12:12:59.248Z,102705.44
2023-05-19T12:15:25.813Z,102701.47
2023-05-19T12:17:58.644Z,102716.13
2023-05-19T12:20:26.701Z,102717.59
2023-05-19T12:22:55.525Z,102732.09
2023-05-19T12:25:23.093Z,102722.03
2023-05-19T12:27:50.039Z,102712.03
2023-05-19T12:30:16.780Z,102698.75
2023-05-19T12:32:44.005Z,102675.91
2023-05-19T12:35:10.951Z,102694.81
2023-05-19T12:37:41.707Z,102707.00
2023-05-19T12:40:09.436Z,102700.72
2023-05-19T12:42:35.953Z,102711.09
2023-05-19T12:45:04.579Z,102694.81
2023-05-19T12:47:33.804Z,102683.34
2023-05-19T12:50:00.332Z,102687.00
2023-05-19T12:52:28.953Z,102680.78
2023-05-19T12:55:06.958Z,102684.16
2023-05-19T12:57:38.065Z,102681.59
2023-05-19T13:00:07.110Z,102679.72
2023-05-19T13:02:36.133Z,102692.34
2023-05-19T13:05:04.817Z,102683.19
2023-05-19T13:07:31.304Z,102676.41
2023-05-19T13:09:57.733Z,102681.56
2023-05-19T13:12:24.644Z,102692.03
2023-05-19T13:14:52.884Z,102677.53
2023-05-19T13:17:20.619Z,102692.50
2023-05-19T13:19:47.073Z,102669.38
2023-05-19T13:22:13.566Z,102671.97
2023-05-19T13:24:40.796Z,102670.78
2023-05-19T13:27:07.224Z,102665.56
2023-05-19T13:29:33.691Z,102673.84
2023-05-19T13:32:01.378Z,102669.88
2023-05-19T13:34:28.107Z,102642.31
2023-05-19T13:36:54.651Z,102639.06
2023-05-19T13:39:21.166Z,102654.22
2023-05-19T13:41:47.588Z,102641.84
2023-05-19T13:44:14.086Z,102650.47
2023-05-19T13:46:45.152Z,102653.47
2023-05-19T13:49:12.375Z,102655.13
2023-05-19T13:51:42.305Z,102652.94
2023-05-19T13:54:08.819Z,102649.59
2023-05-19T13:56:35.462Z,102650.88
2023-05-19T13:59:03.895Z,102645.06
2023-05-19T14:01:30.520Z,102665.34
2023-05-19T14:03:57.386Z,102661.72
2023-05-19T14:06:24.034Z,102670.56
2023-05-19T14:08:50.463Z,102669.53
2023-05-19T14:11:21.487Z,102653.41
2023-05-19T14:13:53.051Z,102645.69
2023-05-19T14:16:21.888Z,102656.78
2023-05-19T14:18:48.990Z,102643.38
2023-05-19T14:21:15.779Z,102651.03
2023-05-19T14:23:42.301Z,102654.38
2023-05-19T14:26:08.833Z,102653.56
2023-05-19T14:28:35.336Z,102662.44
2023-05-19T14:31:01.765Z,102652.03
2023-05-19T14:33:29.714Z,102632.31
2023-05-19T14:36:00.007Z,102634.53
2023-05-19T14:38:27.702Z,102634.06
2023-05-19T14:40:55.458Z,102646.97
2023-05-19T14:43:22.073Z,102648.63
2023-05-19T14:45:48.888Z,102649.81
2023-05-19T14:48:15.802Z,102654.19
2023-05-19T14:50:42.301Z,102643.28
2023-05-19T14:53:08.727Z,102617.81
2023-05-19T14:55:35.327Z,102601.44
2023-05-19T14:58:01.979Z,102602.28
2023-05-19T15:00:29.880Z,102607.25
2023-05-19T15:02:56.524Z,102635.59
2023-05-19T15:05:24.295Z,102636.88
2023-05-19T15:07:50.859Z,102613.84
2023-05-19T15:10:20.405Z,102614.09
2023-05-19T15:12:46.930Z,102610.94
2023-05-19T15:15:14.138Z,102612.03
2023-05-19T15:17:40.826Z,102606.75
2023-05-19T15:20:07.690Z,102613.16
2023-05-19T15:22:34.269Z,102605.97
2023-05-19T15:25:00.972Z,102623.13
2023-05-19T15:27:27.606Z,102634.91
2023-05-19T15:29:54.048Z,102636.41
2023-05-19T15:32:20.662Z,102615.41
2023-05-19T15:34:47.238Z,102624.56
2023-05-19T15:37:13.690Z,102613.44
2023-05-19T15:39:40.357Z,102592.31
2023-05-19T15:42:06.805Z,102590.53
2023-05-19T15:44:33.258Z,102595.44
2023-05-19T15:46:59.889Z,102582.66
2023-05-19T15:49:26.325Z,102604.19
2023-05-19T15:51:52.752Z,102581.13
2023-05-19T15:54:19.180Z,102599.84
2023-05-19T15:56:45.705Z,102601.69
2023-05-19T15:59:12.133Z,102605.41
2023-05-19T16:01:38.708Z,102611.91
2023-05-19T16:04:05.468Z,102625.69
2023-05-19T16:06:32.209Z,102644.59
2023-05-19T16:08:58.619Z,102637.78
2023-05-19T16:11:25.075Z,102635.75
2023-05-19T16:13:51.543Z,102623.22
2023-05-19T16:16:18.791Z,102601.13
2023-05-19T16:18:45.501Z,102621.63
2023-05-19T16:21:12.004Z,102602.03
2023-05-19T16:23:38.537Z,102582.84
2023-05-19T16:26:05.060Z,102609.41
2023-05-19T16:28:32.407Z,102601.59
2023-05-19T16:31:00.115Z,102592.94
2023-05-19T16:33:27.834Z,102612.78
2023-05-19T16:35:54.454Z,102623.56
2023-05-19T16:38:21.035Z,102622.09
2023-05-19T16:40:47.445Z,102626.63
2023-05-19T16:43:13.875Z,102623.25
2023-05-19T16:45:40.336Z,102628.16
2023-05-19T16:48:06.849Z,102622.06
2023-05-19T16:50:33.370Z,102612.59
2023-05-19T16:52:59.886Z,102631.28
2023-05-19T16:55:26.792Z,102628.97
2023-05-19T16:57:53.302Z,102631.88
2023-05-19T17:00:19.908Z,102625.00
2023-05-19T17:02:46.407Z,102628.09
2023-05-19T17:05:12.910Z,102618.78
2023-05-19T17:07:39.328Z,102626.84
2023-05-19T17:10:06.121Z,102637.03
2023-05-19T17:12:32.614Z,102646.03
2023-05-19T17:14:59.045Z,102640.38
2023-05-19T17:17:25.796Z,102653.44
2023-05-19T17:19:52.292Z,102652.78
2023-05-19T17:22:19.132Z,102668.19
2023-05-19T17:24:45.798Z,102660.09
2023-05-19T17:27:12.218Z,102675.44
2023-05-19T17:29:38.661Z,102677.16
2023-05-19T17:32:05.392Z,102669.28
2023-05-19T17:34:32.157Z,102674.66
2023-05-19T17:36:58.587Z,102672.97
2023-05-19T17:39:25.055Z,102651.72
2023-05-19T17:41:51.476Z,102669.00
2023-05-19T17:44:17.955Z,102668.47
2023-05-19T17:46:44.512Z,102657.88
2023-05-19T17:49:12.925Z,102681.94
2023-05-19T17:51:39.564Z,102684.66
2023-05-19T17:54:06.671Z,102693.50
2023-05-19T17:56:34.192Z,102692.56
2023-05-19T17:59:00.908Z,102690.66
2023-05-19T18:01:27.656Z,102691.50
2023-05-19T18:03:54.637Z,102699.75
2023-05-19T18:06:21.564Z,102701.28
2023-05-19T18:08:50.629Z,102703.47
2023-05-19T18:11:18.264Z,102706.34
2023-05-19T18:13:45.000Z,102712.69
2023-05-19T18:16:12.353Z,102713.63
2023-05-19T18:18:41.121Z,102709.66
2023-05-19T18:21:07.628Z,102712.06
2023-05-19T18:23:34.099Z,102712.28
2023-05-19T18:26:00.658Z,102705.72
2023-05-19T18:28:27.078Z,102720.25
2023-05-19T18:31:01.096Z,102709.59
2023-05-19T18:33:28.711Z,102693.66
2023-05-19T18:35:57.640Z,102725.94
2023-05-19T18:38:24.374Z,102723.53
2023-05-19T18:40:51.162Z,102725.41
2023-05-19T18:43:18.277Z,102720.19
2023-05-19T18:45:47.322Z,102699.16
2023-05-19T18:48:15.003Z,102729.72
2023-05-19T18:50:43.717Z,102729.72
2023-05-19T18:53:11.819Z,102716.84
2023-05-19T18:55:38.630Z,102735.00
2023-05-19T18:58:06.069Z,102747.91
2023-05-19T19:00:33.188Z,102733.97
2023-05-19T19:03:00.101Z,102754.66
2023-05-19T19:05:26.573Z,102757.81
2023-05-19T19:07:53.344Z,102753.19
2023-05-19T19:10:19.920Z,102724.44
2023-05-19T19:12:46.448Z,102723.91
2023-05-19T19:15:13.072Z,102758.34
2023-05-19T19:17:42.485Z,102755.63
2023-05-19T19:20:09.560Z,102712.13
2023-05-19T19:22:36.296Z,102758.00
2023-05-19T19:25:02.769Z,102759.78
2023-05-19T19:27:31.244Z,102763.63
2023-05-19T19:30:00.671Z,102745.59
2023-05-19T19:32:27.172Z,102772.34
2023-05-19T19:34:53.669Z,102760.25
2023-05-19T19:37:20.161Z,102756.28
2023-05-19T19:39:46.842Z,102770.81
2023-05-19T19:42:13.438Z,102772.78
2023-05-19T19:44:39.951Z,102765.63
2023-05-19T19:47:06.500Z,102769.97
2023-05-19T19:49:33.702Z,102790.69
2023-05-19T19:52:00.216Z,102793.56
2023-05-19T19:54:26.669Z,102798.97
2023-05-19T19:56:53.137Z,102792.25
2023-05-19T19:59:19.823Z,102787.53
2023-05-19T20:01:46.348Z,102798.44
2023-05-19T20:04:13.012Z,102794.63
2023-05-19T20:06:39.869Z,102795.09
2023-05-19T20:09:06.807Z,102792.41
2023-05-19T20:11:33.291Z,102793.69
2023-05-19T20:13:59.812Z,102786.50
2023-05-19T20:16:26.407Z,102800.47
2023-05-19T20:18:52.926Z,102788.19
2023-05-19T20:21:19.444Z,102800.09
2023-05-19T20:23:46.169Z,102807.19
2023-05-19T20:26:13.560Z,102806.47
2023-05-19T20:28:40.488Z,102786.19
2023-05-19T20:31:07.361Z,102818.81
2023-05-19T20:33:34.076Z,102816.56
2023-05-19T20:36:00.516Z,102815.19
2023-05-19T20:38:27.346Z,102820.28
2023-05-19T20:40:54.428Z,102814.50
2023-05-19T20:43:21.232Z,102815.06
2023-05-19T20:45:47.787Z,102809.09
2023-05-19T20:48:15.872Z,102804.03
2023-05-19T20:50:42.540Z,102806.44
2023-05-19T20:53:08.993Z,102801.75
2023-05-19T20:55:36.515Z,102805.03
2023-05-19T20:58:03.086Z,102808.97
2023-05-19T21:00:30.554Z,102822.38
2023-05-19T21:02:57.362Z,102823.53
2023-05-19T21:05:23.960Z,102822.66
2023-05-19T21:07:50.552Z,102818.16
2023-05-19T21:10:17.867Z,102818.72
2023-05-19T21:12:44.369Z,102787.75
2023-05-19T21:15:11.385Z,102800.53
2023-05-19T21:17:38.110Z,102812.88
2023-05-19T21:20:05.253Z,102815.72
2023-05-19T21:22:31.800Z,102815.72
2023-05-19T21:24:58.251Z,102794.00
2023-05-19T21:27:24.734Z,102814.47
2023-05-19T21:29:53.022Z,102809.47
2023-05-19T21:32:20.292Z,102805.94
2023-05-19T21:34:46.802Z,102770.25
2023-05-19T21:37:13.320Z,102785.44
2023-05-19T21:39:39.748Z,102820.38
2023-05-19T21:42:06.431Z,102822.22
2023-05-19T21:44:32.982Z,102822.06
2023-05-19T21:46:59.517Z,102807.44
2023-05-19T21:49:26.025Z,102827.06
2023-05-19T21:51:52.425Z,102815.69
2023-05-19T21:54:18.835Z,102821.78
2023-05-19T21:56:45.459Z,102806.19
2023-05-19T21:59:12.063Z,102812.72
2023-05-19T22:01:38.878Z,102825.63
2023-05-19T22:04:05.569Z,102830.44
2023-05-19T22:06:32.311Z,102828.03
2023-05-19T22:09:01.104Z,102806.41
2023-05-19T22:11:27.675Z,102795.38
2023-05-19T22:13:56.709Z,102827.59
2023-05-19T22:16:23.184Z,102815.91
2023-05-19T22:18:49.697Z,102826.56
2023-05-19T22:21:16.206Z,102826.31
2023-05-19T22:23:43.424Z,102818.03
2023-05-19T22:26:09.988Z,102788.81
2023-05-19T22:28:36.420Z,102827.16
2023-05-19T22:31:02.860Z,102824.84
2023-05-19T22:33:29.307Z,102840.72
2023-05-19T22:35:55.837Z,102834.94
2023-05-19T22:38:22.278Z,102830.38
2023-05-19T22:40:49.929Z,102829.25
2023-05-19T22:43:16.456Z,102831.03
2023-05-19T22:45:44.310Z,102814.28
2023-05-19T22:48:11.372Z,102815.59
2023-05-19T22:50:37.848Z,102823.94
2023-05-19T22:53:04.274Z,102811.28
2023-05-19T22:55:30.762Z,102789.22
2023-05-19T22:57:57.332Z,102815.94
2023-05-19T23:00:23.855Z,102809.44
2023-05-19T23:02:50.318Z,102804.97
2023-05-19T23:05:16.800Z,102799.66
2023-05-19T23:07:43.300Z,102807.66
2023-05-19T23:10:10.160Z,102800.19
2023-05-19T23:12:36.734Z,102811.63
2023-05-19T23:15:03.778Z,102807.03
2023-05-19T23:17:30.261Z,102817.91
2023-05-19T23:19:56.789Z,102795.53
2023-05-19T23:22:23.274Z,102822.06
2023-05-19T23:24:49.715Z,102811.06
2023-05-19T23:27:16.146Z,102788.50
2023-05-19T23:29:42.604Z,102797.59
2023-05-19T23:32:09.279Z,102812.69
2023-05-19T23:34:35.709Z,102810.66
2023-05-19T23:37:02.186Z,102806.13
2023-05-19T23:39:28.625Z,102810.56
2023-05-19T23:41:55.069Z,102779.50
2023-05-19T23:44:21.573Z,102813.06
2023-05-19T23:46:48.068Z,102815.75
2023-05-19T23:49:14.619Z,102812.13
2023-05-19T23:51:41.337Z,102806.75
2023-05-19T23:54:07.885Z,102814.13
2023-05-19T23:56:34.386Z,102811.75
2023-05-19T23:59:00.818Z,102804.25
